BAW773 ESSA-EGLL
Flight info
| Callsign | BAW773 |
|---|---|
| Flight time | 2h 16m |
| Altitude | 36000 |
| Route | ARS6G ARS N623 BEDLA N866 LAPSI DCT UPGAS DCT TIPAN DCT WECOW DCT BINBO DCT AKOKO N866 BUKUT P7 BARMI BARMI1H |
| Aircraft | A320/M-SDE3FGIJ1KRWXY/SB1 |
Departure
| Time | 2026-05-04 20:23 |
|---|---|
| Airport | Stockholm-Arlanda Airport (ESSA) |
Arrival
| Time | 2026-05-04 22:40 |
|---|---|
| Airport | London Heathrow Airport (EGLL) |
| Time | Latitude | Longitude | Altitude | Speed | Heading |
|---|---|---|---|---|---|
| 2026-05-04 19:37 | 59.64346 | 17.92868 | 113 ft | 0 kts | 35° |
| 2026-05-04 20:11 | 59.64338 | 17.92858 | 112 ft | 4 kts | 35° |
| 2026-05-04 20:11 | 59.64317 | 17.92826 | 111 ft | 4 kts | 36° |
| 2026-05-04 20:11 | 59.64295 | 17.92796 | 111 ft | 4 kts | 34° |
| 2026-05-04 20:11 | 59.64272 | 17.92767 | 111 ft | 4 kts | 28° |
| 2026-05-04 20:12 | 59.64248 | 17.92746 | 112 ft | 4 kts | 11° |
| 2026-05-04 20:12 | 59.64226 | 17.92748 | 112 ft | 4 kts | 311° |
| 2026-05-04 20:12 | 59.64222 | 17.92755 | 112 ft | 0 kts | 297° |
| 2026-05-04 20:16 | 59.64228 | 17.92733 | 111 ft | 6 kts | 297° |
| 2026-05-04 20:16 | 59.64265 | 17.92595 | 113 ft | 16 kts | 297° |
| 2026-05-04 20:16 | 59.64306 | 17.92438 | 114 ft | 12 kts | 297° |
| 2026-05-04 20:16 | 59.64350 | 17.92273 | 114 ft | 15 kts | 297° |
| 2026-05-04 20:17 | 59.64400 | 17.92077 | 112 ft | 18 kts | 296° |
| 2026-05-04 20:17 | 59.64482 | 17.91958 | 111 ft | 17 kts | 9° |
| 2026-05-04 20:17 | 59.64607 | 17.92002 | 109 ft | 20 kts | 10° |
| 2026-05-04 20:17 | 59.64752 | 17.92057 | 107 ft | 21 kts | 9° |
| 2026-05-04 20:18 | 59.64907 | 17.92111 | 106 ft | 24 kts | 10° |
| 2026-05-04 20:18 | 59.65077 | 17.92173 | 107 ft | 26 kts | 10° |
| 2026-05-04 20:18 | 59.65243 | 17.92232 | 107 ft | 20 kts | 10° |
| 2026-05-04 20:18 | 59.65365 | 17.92277 | 104 ft | 14 kts | 10° |
| 2026-05-04 20:19 | 59.65471 | 17.92315 | 104 ft | 16 kts | 10° |
| 2026-05-04 20:19 | 59.65591 | 17.92359 | 104 ft | 18 kts | 11° |
| 2026-05-04 20:19 | 59.65721 | 17.92407 | 105 ft | 20 kts | 10° |
| 2026-05-04 20:19 | 59.65850 | 17.92452 | 107 ft | 15 kts | 10° |
| 2026-05-04 20:20 | 59.65913 | 17.92349 | 110 ft | 7 kts | 282° |
| 2026-05-04 20:20 | 59.65915 | 17.92321 | 111 ft | 0 kts | 281° |
| 2026-05-04 20:21 | 59.65923 | 17.92235 | 113 ft | 13 kts | 280° |
| 2026-05-04 20:22 | 59.65874 | 17.92099 | 114 ft | 15 kts | 192° |
| 2026-05-04 20:22 | 59.65850 | 17.92091 | 112 ft | 0 kts | 190° |
| 2026-05-04 20:23 | 59.65686 | 17.92031 | 109 ft | 58 kts | 190° |
| 2026-05-04 20:23 | 59.65083 | 17.91813 | 104 ft | 117 kts | 190° |
| 2026-05-04 20:23 | 59.64132 | 17.91481 | 195 ft | 154 kts | 191° |
| 2026-05-04 20:23 | 59.63079 | 17.91169 | 820 ft | 153 kts | 191° |
| 2026-05-04 20:24 | 59.62031 | 17.90820 | 1479 ft | 155 kts | 201° |
| 2026-05-04 20:24 | 59.61114 | 17.89738 | 1781 ft | 160 kts | 239° |
| 2026-05-04 20:24 | 59.60529 | 17.87733 | 2011 ft | 181 kts | 244° |
| 2026-05-04 20:24 | 59.59863 | 17.85457 | 2443 ft | 198 kts | 243° |
| 2026-05-04 20:25 | 59.59145 | 17.83073 | 3167 ft | 205 kts | 242° |
| 2026-05-04 20:25 | 59.58415 | 17.80610 | 3872 ft | 214 kts | 244° |
| 2026-05-04 20:25 | 59.57690 | 17.77879 | 4305 ft | 236 kts | 245° |
| 2026-05-04 20:25 | 59.56953 | 17.74905 | 4858 ft | 245 kts | 251° |
| 2026-05-04 20:26 | 59.56735 | 17.71609 | 5078 ft | 246 kts | 274° |
| 2026-05-04 20:26 | 59.56851 | 17.68240 | 5977 ft | 246 kts | 273° |
| 2026-05-04 20:26 | 59.56937 | 17.64848 | 6845 ft | 249 kts | 272° |
| 2026-05-04 20:26 | 59.57011 | 17.61416 | 7682 ft | 251 kts | 272° |
| 2026-05-04 20:27 | 59.57081 | 17.57953 | 8518 ft | 254 kts | 272° |
| 2026-05-04 20:27 | 59.57151 | 17.54445 | 9313 ft | 258 kts | 271° |
| 2026-05-04 20:27 | 59.57220 | 17.50879 | 10051 ft | 262 kts | 271° |
| 2026-05-04 20:27 | 59.57292 | 17.47282 | 10825 ft | 263 kts | 271° |
| 2026-05-04 20:28 | 59.57362 | 17.43644 | 11420 ft | 273 kts | 270° |
| 2026-05-04 20:28 | 59.57433 | 17.39754 | 11564 ft | 296 kts | 270° |
| 2026-05-04 20:28 | 59.57508 | 17.35587 | 11911 ft | 309 kts | 270° |
| 2026-05-04 20:28 | 59.57588 | 17.31321 | 12564 ft | 313 kts | 270° |
| 2026-05-04 20:29 | 59.57668 | 17.27037 | 13314 ft | 313 kts | 270° |
| 2026-05-04 20:29 | 59.57748 | 17.22731 | 14009 ft | 314 kts | 270° |
| 2026-05-04 20:29 | 59.57827 | 17.18428 | 14664 ft | 314 kts | 270° |
| 2026-05-04 20:29 | 59.57899 | 17.14212 | 15323 ft | 314 kts | 271° |
| 2026-05-04 20:30 | 59.57972 | 17.09844 | 15981 ft | 315 kts | 271° |
| 2026-05-04 20:30 | 59.57966 | 17.05534 | 16621 ft | 315 kts | 263° |
| 2026-05-04 20:30 | 59.57400 | 17.01409 | 17247 ft | 318 kts | 253° |
| 2026-05-04 20:30 | 59.56652 | 16.97243 | 17907 ft | 319 kts | 253° |
| 2026-05-04 20:31 | 59.55899 | 16.93126 | 18463 ft | 320 kts | 253° |
| 2026-05-04 20:31 | 59.55147 | 16.89049 | 19012 ft | 322 kts | 253° |
| 2026-05-04 20:31 | 59.54369 | 16.84841 | 19550 ft | 324 kts | 253° |
| 2026-05-04 20:31 | 59.53593 | 16.80653 | 20081 ft | 326 kts | 253° |
| 2026-05-04 20:32 | 59.52816 | 16.76447 | 20589 ft | 328 kts | 253° |
| 2026-05-04 20:32 | 59.52046 | 16.72272 | 21071 ft | 330 kts | 253° |
| 2026-05-04 20:32 | 59.51261 | 16.68010 | 21544 ft | 332 kts | 253° |
| 2026-05-04 20:32 | 59.50472 | 16.63730 | 22007 ft | 334 kts | 252° |
| 2026-05-04 20:33 | 59.49672 | 16.59417 | 22471 ft | 336 kts | 252° |
| 2026-05-04 20:33 | 59.48865 | 16.55083 | 22936 ft | 338 kts | 252° |
| 2026-05-04 20:33 | 59.48051 | 16.50727 | 23384 ft | 341 kts | 252° |
| 2026-05-04 20:33 | 59.47229 | 16.46337 | 23747 ft | 343 kts | 252° |
| 2026-05-04 20:34 | 59.46402 | 16.41927 | 24120 ft | 345 kts | 252° |
| 2026-05-04 20:34 | 59.45567 | 16.37484 | 24520 ft | 347 kts | 252° |
| 2026-05-04 20:34 | 59.44727 | 16.33031 | 24892 ft | 349 kts | 252° |
| 2026-05-04 20:34 | 59.43883 | 16.28563 | 25187 ft | 351 kts | 252° |
| 2026-05-04 20:35 | 59.43028 | 16.24047 | 25501 ft | 354 kts | 252° |
| 2026-05-04 20:35 | 59.42166 | 16.19501 | 25830 ft | 357 kts | 252° |
| 2026-05-04 20:35 | 59.41294 | 16.14902 | 26173 ft | 359 kts | 252° |
| 2026-05-04 20:35 | 59.40415 | 16.10290 | 26524 ft | 361 kts | 252° |
| 2026-05-04 20:36 | 59.39529 | 16.05664 | 26880 ft | 364 kts | 251° |
| 2026-05-04 20:36 | 59.38637 | 16.01010 | 27237 ft | 366 kts | 252° |
| 2026-05-04 20:36 | 59.37738 | 15.96320 | 27593 ft | 368 kts | 252° |
| 2026-05-04 20:36 | 59.36832 | 15.91610 | 27941 ft | 370 kts | 251° |
| 2026-05-04 20:37 | 59.35920 | 15.86877 | 28275 ft | 372 kts | 251° |
| 2026-05-04 20:37 | 59.34998 | 15.82113 | 28632 ft | 374 kts | 251° |
| 2026-05-04 20:37 | 59.34388 | 15.78960 | 28927 ft | 373 kts | 251° |
| 2026-05-04 20:37 | 59.33467 | 15.74215 | 29405 ft | 373 kts | 251° |
| 2026-05-04 20:38 | 59.32546 | 15.69480 | 29880 ft | 372 kts | 251° |
| 2026-05-04 20:38 | 59.31622 | 15.64746 | 30268 ft | 371 kts | 251° |
| 2026-05-04 20:38 | 59.30702 | 15.60040 | 30681 ft | 370 kts | 251° |
| 2026-05-04 20:38 | 59.29781 | 15.55333 | 31090 ft | 369 kts | 251° |
| 2026-05-04 20:39 | 59.28861 | 15.50651 | 31482 ft | 369 kts | 251° |
| 2026-05-04 20:39 | 59.27938 | 15.45972 | 31867 ft | 369 kts | 251° |
| 2026-05-04 20:39 | 59.27014 | 15.41301 | 32253 ft | 369 kts | 251° |
| 2026-05-04 20:39 | 59.26090 | 15.36627 | 32562 ft | 369 kts | 251° |
| 2026-05-04 20:40 | 59.25162 | 15.31942 | 32886 ft | 370 kts | 251° |
| 2026-05-04 20:40 | 59.24228 | 15.27244 | 33232 ft | 371 kts | 251° |
| 2026-05-04 20:40 | 59.23290 | 15.22543 | 33603 ft | 371 kts | 251° |
| 2026-05-04 20:40 | 59.22351 | 15.17848 | 33936 ft | 371 kts | 251° |
| 2026-05-04 20:41 | 59.21408 | 15.13157 | 34216 ft | 372 kts | 251° |
| 2026-05-04 20:41 | 59.20459 | 15.08446 | 34482 ft | 373 kts | 251° |
| 2026-05-04 20:41 | 59.19477 | 15.03753 | 34726 ft | 375 kts | 246° |
| 2026-05-04 20:41 | 59.18143 | 14.99362 | 34985 ft | 380 kts | 238° |
| 2026-05-04 20:42 | 59.16580 | 14.95192 | 35226 ft | 381 kts | 238° |
| 2026-05-04 20:42 | 59.15011 | 14.91015 | 35468 ft | 382 kts | 238° |
| 2026-05-04 20:42 | 59.13435 | 14.86820 | 35681 ft | 384 kts | 238° |
| 2026-05-04 20:42 | 59.11855 | 14.82611 | 35750 ft | 389 kts | 238° |
| 2026-05-04 20:43 | 59.08614 | 14.73995 | 35761 ft | 398 kts | 237° |
| 2026-05-04 20:43 | 59.05330 | 14.65303 | 35713 ft | 399 kts | 237° |
| 2026-05-04 20:44 | 59.02049 | 14.56642 | 35750 ft | 398 kts | 237° |
| 2026-05-04 20:44 | 58.98759 | 14.48014 | 35761 ft | 398 kts | 237° |
| 2026-05-04 20:45 | 58.95465 | 14.39399 | 35770 ft | 398 kts | 237° |
| 2026-05-04 20:45 | 58.92183 | 14.30839 | 35786 ft | 398 kts | 238° |
| 2026-05-04 20:46 | 58.89088 | 14.21905 | 35792 ft | 396 kts | 241° |
| 2026-05-04 20:46 | 58.86249 | 14.12871 | 35792 ft | 396 kts | 242° |
| 2026-05-04 20:47 | 58.83380 | 14.03786 | 35758 ft | 396 kts | 241° |
| 2026-05-04 20:47 | 58.80446 | 13.94768 | 35779 ft | 396 kts | 241° |
| 2026-05-04 20:48 | 58.77485 | 13.85790 | 35790 ft | 397 kts | 241° |
| 2026-05-04 20:48 | 58.74520 | 13.76834 | 35804 ft | 397 kts | 241° |
| 2026-05-04 20:49 | 58.71554 | 13.67883 | 35811 ft | 397 kts | 240° |
| 2026-05-04 20:49 | 58.68582 | 13.58934 | 35815 ft | 397 kts | 240° |
| 2026-05-04 20:50 | 58.65604 | 13.50014 | 35825 ft | 397 kts | 240° |
| 2026-05-04 20:50 | 58.62618 | 13.41096 | 35827 ft | 397 kts | 240° |
| 2026-05-04 20:51 | 58.59624 | 13.32193 | 35795 ft | 397 kts | 240° |
| 2026-05-04 20:51 | 58.56628 | 13.23298 | 35824 ft | 397 kts | 240° |
| 2026-05-04 20:52 | 58.53623 | 13.14422 | 35824 ft | 398 kts | 240° |
| 2026-05-04 20:52 | 58.50604 | 13.05544 | 35821 ft | 398 kts | 240° |
| 2026-05-04 20:53 | 58.47575 | 12.96679 | 35824 ft | 398 kts | 240° |
| 2026-05-04 20:53 | 58.44545 | 12.87833 | 35821 ft | 398 kts | 240° |
| 2026-05-04 20:54 | 58.41509 | 12.78999 | 35822 ft | 398 kts | 240° |
| 2026-05-04 20:54 | 58.38464 | 12.70181 | 35780 ft | 398 kts | 240° |
| 2026-05-04 20:55 | 58.35409 | 12.61357 | 35818 ft | 399 kts | 239° |
| 2026-05-04 20:55 | 58.32347 | 12.52543 | 35826 ft | 399 kts | 239° |
| 2026-05-04 20:56 | 58.29274 | 12.43742 | 35855 ft | 400 kts | 239° |
| 2026-05-04 20:56 | 58.26187 | 12.34946 | 35851 ft | 400 kts | 240° |
| 2026-05-04 20:57 | 58.23095 | 12.26158 | 35851 ft | 400 kts | 239° |
| 2026-05-04 20:57 | 58.19996 | 12.17381 | 35867 ft | 400 kts | 239° |
| 2026-05-04 20:58 | 58.16895 | 12.08617 | 35867 ft | 400 kts | 239° |
| 2026-05-04 20:58 | 58.13793 | 11.99881 | 35867 ft | 400 kts | 239° |
| 2026-05-04 20:59 | 58.10674 | 11.91152 | 35879 ft | 400 kts | 239° |
| 2026-05-04 20:59 | 58.07574 | 11.82499 | 35883 ft | 400 kts | 239° |
| 2026-05-04 21:00 | 58.04449 | 11.73801 | 35894 ft | 400 kts | 239° |
| 2026-05-04 21:00 | 58.01314 | 11.65116 | 35896 ft | 400 kts | 239° |
| 2026-05-04 21:01 | 57.98185 | 11.56457 | 35897 ft | 400 kts | 239° |
| 2026-05-04 21:01 | 57.95041 | 11.47792 | 35859 ft | 400 kts | 239° |
| 2026-05-04 21:02 | 57.91886 | 11.39151 | 35866 ft | 401 kts | 238° |
| 2026-05-04 21:02 | 57.88717 | 11.30507 | 35876 ft | 402 kts | 238° |
| 2026-05-04 21:03 | 57.85543 | 11.21868 | 35889 ft | 402 kts | 238° |
| 2026-05-04 21:03 | 57.82363 | 11.13229 | 35895 ft | 402 kts | 238° |
| 2026-05-04 21:04 | 57.79172 | 11.04606 | 35901 ft | 402 kts | 238° |
| 2026-05-04 21:04 | 57.75980 | 10.95997 | 35934 ft | 402 kts | 238° |
| 2026-05-04 21:05 | 57.72786 | 10.87407 | 35892 ft | 402 kts | 238° |
| 2026-05-04 21:05 | 57.69580 | 10.78850 | 35897 ft | 402 kts | 238° |
| 2026-05-04 21:06 | 57.66365 | 10.70290 | 35912 ft | 402 kts | 238° |
| 2026-05-04 21:06 | 57.63146 | 10.61753 | 35916 ft | 402 kts | 238° |
| 2026-05-04 21:07 | 57.59919 | 10.53212 | 35918 ft | 403 kts | 238° |
| 2026-05-04 21:07 | 57.56684 | 10.44695 | 35932 ft | 403 kts | 238° |
| 2026-05-04 21:08 | 57.53440 | 10.36191 | 35933 ft | 403 kts | 238° |
| 2026-05-04 21:08 | 57.50200 | 10.27693 | 35906 ft | 403 kts | 238° |
| 2026-05-04 21:09 | 57.46946 | 10.19193 | 35931 ft | 404 kts | 238° |
| 2026-05-04 21:09 | 57.43679 | 10.10701 | 35935 ft | 404 kts | 238° |
| 2026-05-04 21:10 | 57.40406 | 10.02227 | 35949 ft | 404 kts | 237° |
| 2026-05-04 21:10 | 57.37126 | 9.93771 | 35953 ft | 404 kts | 237° |
| 2026-05-04 21:11 | 57.33861 | 9.85377 | 35956 ft | 404 kts | 237° |
| 2026-05-04 21:11 | 57.30569 | 9.76941 | 35958 ft | 404 kts | 237° |
| 2026-05-04 21:12 | 57.27273 | 9.68524 | 35910 ft | 404 kts | 237° |
| 2026-05-04 21:12 | 57.23964 | 9.60095 | 35917 ft | 406 kts | 237° |
| 2026-05-04 21:13 | 57.20640 | 9.51659 | 35941 ft | 407 kts | 237° |
| 2026-05-04 21:13 | 57.17306 | 9.43220 | 35956 ft | 407 kts | 237° |
| 2026-05-04 21:14 | 57.13965 | 9.34801 | 35973 ft | 407 kts | 237° |
| 2026-05-04 21:14 | 57.10611 | 9.26398 | 35974 ft | 407 kts | 237° |
| 2026-05-04 21:15 | 57.07256 | 9.18008 | 35978 ft | 407 kts | 237° |
| 2026-05-04 21:15 | 57.03897 | 9.09639 | 35943 ft | 407 kts | 236° |
| 2026-05-04 21:16 | 57.00517 | 9.01251 | 35948 ft | 409 kts | 236° |
| 2026-05-04 21:16 | 56.97131 | 8.92869 | 35957 ft | 410 kts | 236° |
| 2026-05-04 21:17 | 56.93728 | 8.84482 | 35963 ft | 411 kts | 236° |
| 2026-05-04 21:17 | 56.90313 | 8.76092 | 35983 ft | 411 kts | 236° |
| 2026-05-04 21:18 | 56.86901 | 8.67712 | 35996 ft | 410 kts | 236° |
| 2026-05-04 21:18 | 56.83482 | 8.59351 | 35997 ft | 410 kts | 236° |
| 2026-05-04 21:19 | 56.80053 | 8.51021 | 35954 ft | 411 kts | 236° |
| 2026-05-04 21:19 | 56.77193 | 8.44096 | 35962 ft | 412 kts | 236° |
| 2026-05-04 21:20 | 56.73170 | 8.34390 | 35964 ft | 414 kts | 236° |
| 2026-05-04 21:20 | 56.69700 | 8.26021 | 35983 ft | 414 kts | 236° |
| 2026-05-04 21:21 | 56.66786 | 8.19012 | 35996 ft | 415 kts | 236° |
| 2026-05-04 21:21 | 56.63290 | 8.10674 | 36003 ft | 415 kts | 235° |
| 2026-05-04 21:22 | 56.59789 | 8.02342 | 36008 ft | 415 kts | 235° |
| 2026-05-04 21:22 | 56.56289 | 7.94025 | 35984 ft | 415 kts | 235° |
| 2026-05-04 21:23 | 56.52795 | 7.85751 | 35983 ft | 416 kts | 235° |
| 2026-05-04 21:23 | 56.49242 | 7.77366 | 35987 ft | 417 kts | 235° |
| 2026-05-04 21:24 | 56.45725 | 7.69088 | 36001 ft | 418 kts | 234° |
| 2026-05-04 21:24 | 56.42175 | 7.60771 | 36005 ft | 418 kts | 234° |
| 2026-05-04 21:25 | 56.38613 | 7.52456 | 36012 ft | 418 kts | 234° |
| 2026-05-04 21:25 | 56.35051 | 7.44154 | 36001 ft | 418 kts | 234° |
| 2026-05-04 21:26 | 56.31481 | 7.35859 | 36006 ft | 419 kts | 234° |
| 2026-05-04 21:26 | 56.27892 | 7.27591 | 36008 ft | 420 kts | 234° |
| 2026-05-04 21:27 | 56.24296 | 7.19312 | 36013 ft | 420 kts | 234° |
| 2026-05-04 21:27 | 56.20692 | 7.11034 | 36023 ft | 420 kts | 234° |
| 2026-05-04 21:28 | 56.17088 | 7.02778 | 36024 ft | 420 kts | 234° |
| 2026-05-04 21:28 | 56.13472 | 6.94535 | 36025 ft | 420 kts | 234° |
| 2026-05-04 21:29 | 56.09837 | 6.86306 | 36004 ft | 421 kts | 233° |
| 2026-05-04 21:29 | 56.06205 | 6.78089 | 36011 ft | 422 kts | 233° |
| 2026-05-04 21:30 | 56.02564 | 6.69854 | 36019 ft | 422 kts | 233° |
| 2026-05-04 21:30 | 55.98913 | 6.61630 | 36028 ft | 422 kts | 233° |
| 2026-05-04 21:31 | 55.93420 | 6.49324 | 36031 ft | 423 kts | 233° |
| 2026-05-04 21:32 | 55.89750 | 6.41142 | 36033 ft | 423 kts | 233° |
| 2026-05-04 21:32 | 55.86068 | 6.32972 | 36035 ft | 423 kts | 233° |
| 2026-05-04 21:33 | 55.82387 | 6.24804 | 36041 ft | 423 kts | 233° |
| 2026-05-04 21:33 | 55.78701 | 6.16652 | 36050 ft | 423 kts | 233° |
| 2026-05-04 21:34 | 55.75026 | 6.08572 | 36047 ft | 423 kts | 233° |
| 2026-05-04 21:34 | 55.71303 | 6.00409 | 36049 ft | 423 kts | 233° |
| 2026-05-04 21:35 | 55.67605 | 5.92309 | 36051 ft | 423 kts | 233° |
| 2026-05-04 21:35 | 55.63897 | 5.84228 | 36029 ft | 423 kts | 232° |
| 2026-05-04 21:36 | 55.60171 | 5.76160 | 36025 ft | 424 kts | 232° |
| 2026-05-04 21:36 | 55.56441 | 5.68079 | 36027 ft | 425 kts | 232° |
| 2026-05-04 21:37 | 55.52728 | 5.60058 | 36034 ft | 425 kts | 232° |
| 2026-05-04 21:37 | 55.48974 | 5.51976 | 36045 ft | 426 kts | 232° |
| 2026-05-04 21:38 | 55.45214 | 5.43919 | 36055 ft | 426 kts | 232° |
| 2026-05-04 21:38 | 55.41450 | 5.35880 | 36056 ft | 426 kts | 232° |
| 2026-05-04 21:39 | 55.37674 | 5.27847 | 36037 ft | 426 kts | 232° |
| 2026-05-04 21:39 | 55.33884 | 5.19808 | 36037 ft | 427 kts | 232° |
| 2026-05-04 21:40 | 55.30084 | 5.11775 | 36043 ft | 428 kts | 232° |
| 2026-05-04 21:40 | 55.26255 | 5.03776 | 36049 ft | 428 kts | 229° |
| 2026-05-04 21:41 | 55.21602 | 4.97241 | 36051 ft | 433 kts | 211° |
| 2026-05-04 21:41 | 55.16287 | 4.92231 | 36037 ft | 434 kts | 210° |
| 2026-05-04 21:42 | 55.10960 | 4.87221 | 36039 ft | 435 kts | 210° |
| 2026-05-04 21:42 | 55.05624 | 4.82207 | 36039 ft | 436 kts | 210° |
| 2026-05-04 21:43 | 55.00271 | 4.77204 | 36042 ft | 437 kts | 210° |
| 2026-05-04 21:43 | 54.94915 | 4.72200 | 36050 ft | 437 kts | 210° |
| 2026-05-04 21:44 | 54.89557 | 4.67203 | 36043 ft | 437 kts | 210° |
| 2026-05-04 21:44 | 54.84188 | 4.62215 | 36047 ft | 438 kts | 209° |
| 2026-05-04 21:45 | 54.78793 | 4.57245 | 36051 ft | 439 kts | 209° |
| 2026-05-04 21:45 | 54.73438 | 4.52310 | 36058 ft | 439 kts | 209° |
| 2026-05-04 21:46 | 54.68049 | 4.47342 | 36062 ft | 439 kts | 209° |
| 2026-05-04 21:46 | 54.62639 | 4.42382 | 36063 ft | 439 kts | 209° |
| 2026-05-04 21:47 | 54.57233 | 4.37470 | 36065 ft | 440 kts | 209° |
| 2026-05-04 21:47 | 54.51822 | 4.32550 | 36069 ft | 440 kts | 209° |
| 2026-05-04 21:48 | 54.46409 | 4.27639 | 36075 ft | 440 kts | 209° |
| 2026-05-04 21:48 | 54.40989 | 4.22733 | 36060 ft | 440 kts | 209° |
| 2026-05-04 21:49 | 54.35568 | 4.17838 | 36067 ft | 440 kts | 208° |
| 2026-05-04 21:49 | 54.30139 | 4.12957 | 36071 ft | 441 kts | 208° |
| 2026-05-04 21:50 | 54.24710 | 4.08084 | 36075 ft | 441 kts | 208° |
| 2026-05-04 21:50 | 54.19314 | 4.03246 | 36077 ft | 441 kts | 208° |
| 2026-05-04 21:51 | 54.13883 | 3.98408 | 36085 ft | 440 kts | 208° |
| 2026-05-04 21:51 | 54.08458 | 3.93596 | 36088 ft | 439 kts | 208° |
| 2026-05-04 21:52 | 54.03046 | 3.88802 | 36085 ft | 438 kts | 208° |
| 2026-05-04 21:52 | 53.97641 | 3.84019 | 36085 ft | 438 kts | 208° |
| 2026-05-04 21:53 | 53.92238 | 3.79256 | 36099 ft | 437 kts | 209° |
| 2026-05-04 21:53 | 53.86839 | 3.74517 | 36101 ft | 436 kts | 208° |
| 2026-05-04 21:54 | 53.81455 | 3.69804 | 36097 ft | 435 kts | 208° |
| 2026-05-04 21:54 | 53.76074 | 3.65108 | 36086 ft | 435 kts | 208° |
| 2026-05-04 21:55 | 53.70694 | 3.60434 | 36076 ft | 436 kts | 208° |
| 2026-05-04 21:55 | 53.65306 | 3.55757 | 36073 ft | 436 kts | 208° |
| 2026-05-04 21:56 | 53.59907 | 3.51069 | 36092 ft | 436 kts | 208° |
| 2026-05-04 21:56 | 53.54557 | 3.46442 | 36097 ft | 435 kts | 208° |
| 2026-05-04 21:57 | 53.49128 | 3.41771 | 36081 ft | 435 kts | 208° |
| 2026-05-04 21:57 | 53.43772 | 3.37185 | 36084 ft | 435 kts | 208° |
| 2026-05-04 21:58 | 53.38381 | 3.32577 | 36092 ft | 435 kts | 208° |
| 2026-05-04 21:58 | 53.32990 | 3.27976 | 36063 ft | 435 kts | 208° |
| 2026-05-04 21:59 | 53.27592 | 3.23399 | 36062 ft | 435 kts | 208° |
| 2026-05-04 21:59 | 53.22194 | 3.18825 | 36065 ft | 435 kts | 208° |
| 2026-05-04 22:00 | 53.16806 | 3.14252 | 36063 ft | 435 kts | 208° |
| 2026-05-04 22:00 | 53.11504 | 3.09771 | 36067 ft | 434 kts | 208° |
| 2026-05-04 22:01 | 53.06104 | 3.05224 | 36077 ft | 434 kts | 208° |
| 2026-05-04 22:01 | 53.00709 | 3.00700 | 36062 ft | 435 kts | 208° |
| 2026-05-04 22:02 | 52.95306 | 2.96176 | 36052 ft | 435 kts | 208° |
| 2026-05-04 22:02 | 52.89894 | 2.91677 | 36067 ft | 435 kts | 208° |
| 2026-05-04 22:03 | 52.84471 | 2.87189 | 36072 ft | 435 kts | 208° |
| 2026-05-04 22:03 | 52.79058 | 2.82710 | 36061 ft | 435 kts | 208° |
| 2026-05-04 22:04 | 52.73645 | 2.78234 | 36073 ft | 435 kts | 208° |
| 2026-05-04 22:04 | 52.68235 | 2.73757 | 35576 ft | 437 kts | 208° |
| 2026-05-04 22:04 | 52.65481 | 2.71486 | 34520 ft | 448 kts | 208° |
| 2026-05-04 22:05 | 52.62710 | 2.69208 | 33932 ft | 445 kts | 207° |
| 2026-05-04 22:05 | 52.59951 | 2.66950 | 32735 ft | 441 kts | 208° |
| 2026-05-04 22:05 | 52.58128 | 2.65457 | 32185 ft | 441 kts | 208° |
| 2026-05-04 22:05 | 52.54494 | 2.62488 | 31397 ft | 428 kts | 208° |
| 2026-05-04 22:06 | 52.52735 | 2.61055 | 31046 ft | 425 kts | 208° |
| 2026-05-04 22:06 | 52.50101 | 2.58908 | 30506 ft | 421 kts | 208° |
| 2026-05-04 22:06 | 52.47492 | 2.56779 | 29945 ft | 417 kts | 208° |
| 2026-05-04 22:06 | 52.44916 | 2.54680 | 29660 ft | 411 kts | 208° |
| 2026-05-04 22:07 | 52.42360 | 2.52600 | 29364 ft | 410 kts | 208° |
| 2026-05-04 22:07 | 52.39811 | 2.50528 | 29081 ft | 408 kts | 208° |
| 2026-05-04 22:07 | 52.37272 | 2.48464 | 28802 ft | 407 kts | 208° |
| 2026-05-04 22:07 | 52.34740 | 2.46409 | 28530 ft | 405 kts | 208° |
| 2026-05-04 22:08 | 52.32225 | 2.44373 | 28255 ft | 402 kts | 208° |
| 2026-05-04 22:08 | 52.29720 | 2.42350 | 27983 ft | 401 kts | 208° |
| 2026-05-04 22:08 | 52.27228 | 2.40341 | 27717 ft | 399 kts | 208° |
| 2026-05-04 22:08 | 52.24735 | 2.38329 | 27433 ft | 399 kts | 207° |
| 2026-05-04 22:09 | 52.22245 | 2.36318 | 27171 ft | 401 kts | 207° |
| 2026-05-04 22:09 | 52.19740 | 2.34305 | 26912 ft | 400 kts | 207° |
| 2026-05-04 22:09 | 52.17250 | 2.32311 | 26649 ft | 399 kts | 207° |
| 2026-05-04 22:09 | 52.14759 | 2.30317 | 26387 ft | 398 kts | 207° |
| 2026-05-04 22:10 | 52.12307 | 2.28259 | 26145 ft | 396 kts | 212° |
| 2026-05-04 22:10 | 52.10079 | 2.25659 | 25889 ft | 393 kts | 222° |
| 2026-05-04 22:10 | 52.08159 | 2.22510 | 25637 ft | 391 kts | 230° |
| 2026-05-04 22:10 | 52.06376 | 2.19174 | 25389 ft | 390 kts | 230° |
| 2026-05-04 22:11 | 52.04594 | 2.15858 | 25142 ft | 389 kts | 230° |
| 2026-05-04 22:11 | 52.02812 | 2.12546 | 24907 ft | 388 kts | 229° |
| 2026-05-04 22:11 | 52.01037 | 2.09255 | 25026 ft | 389 kts | 229° |
| 2026-05-04 22:11 | 51.99256 | 2.05964 | 25043 ft | 389 kts | 229° |
| 2026-05-04 22:12 | 51.97467 | 2.02672 | 25043 ft | 390 kts | 229° |
| 2026-05-04 22:12 | 51.95671 | 1.99371 | 25043 ft | 390 kts | 229° |
| 2026-05-04 22:12 | 51.93875 | 1.96076 | 25043 ft | 389 kts | 229° |
| 2026-05-04 22:12 | 51.92084 | 1.92789 | 25050 ft | 389 kts | 229° |
| 2026-05-04 22:13 | 51.90292 | 1.89502 | 25049 ft | 389 kts | 229° |
| 2026-05-04 22:13 | 51.88501 | 1.86220 | 25046 ft | 389 kts | 229° |
| 2026-05-04 22:13 | 51.86711 | 1.82942 | 25046 ft | 389 kts | 229° |
| 2026-05-04 22:13 | 51.84923 | 1.79668 | 25046 ft | 389 kts | 229° |
| 2026-05-04 22:14 | 51.83130 | 1.76390 | 25046 ft | 389 kts | 229° |
| 2026-05-04 22:14 | 51.81339 | 1.73119 | 25048 ft | 389 kts | 229° |
| 2026-05-04 22:14 | 51.79543 | 1.69847 | 25048 ft | 389 kts | 228° |
| 2026-05-04 22:14 | 51.77747 | 1.66577 | 25048 ft | 389 kts | 229° |
| 2026-05-04 22:15 | 51.76165 | 1.63038 | 25048 ft | 389 kts | 239° |
| 2026-05-04 22:15 | 51.75024 | 1.59074 | 24983 ft | 392 kts | 249° |
| 2026-05-04 22:15 | 51.74348 | 1.54847 | 24232 ft | 398 kts | 261° |
| 2026-05-04 22:15 | 51.74087 | 1.50397 | 23624 ft | 398 kts | 263° |
| 2026-05-04 22:16 | 51.73832 | 1.45964 | 22965 ft | 396 kts | 263° |
| 2026-05-04 22:16 | 51.73555 | 1.41563 | 22375 ft | 393 kts | 262° |
| 2026-05-04 22:16 | 51.73268 | 1.37206 | 21785 ft | 390 kts | 263° |
| 2026-05-04 22:16 | 51.72976 | 1.32856 | 21207 ft | 389 kts | 262° |
| 2026-05-04 22:17 | 51.72684 | 1.28531 | 20621 ft | 387 kts | 262° |
| 2026-05-04 22:17 | 51.72395 | 1.24223 | 20040 ft | 386 kts | 263° |
| 2026-05-04 22:17 | 51.72104 | 1.19875 | 19453 ft | 384 kts | 263° |
| 2026-05-04 22:17 | 51.71822 | 1.15658 | 18883 ft | 383 kts | 263° |
| 2026-05-04 22:18 | 51.71536 | 1.11403 | 18303 ft | 382 kts | 263° |
| 2026-05-04 22:18 | 51.71249 | 1.07151 | 17696 ft | 380 kts | 262° |
| 2026-05-04 22:18 | 51.70961 | 1.02947 | 17111 ft | 376 kts | 263° |
| 2026-05-04 22:18 | 51.70673 | 0.98759 | 16551 ft | 373 kts | 263° |
| 2026-05-04 22:19 | 51.70388 | 0.94619 | 15993 ft | 370 kts | 263° |
| 2026-05-04 22:19 | 51.70104 | 0.90512 | 15405 ft | 368 kts | 263° |
| 2026-05-04 22:19 | 51.69819 | 0.86422 | 14833 ft | 366 kts | 263° |
| 2026-05-04 22:19 | 51.69534 | 0.82346 | 14261 ft | 365 kts | 263° |
| 2026-05-04 22:20 | 51.69249 | 0.78294 | 13669 ft | 364 kts | 263° |
| 2026-05-04 22:20 | 51.68962 | 0.74252 | 13071 ft | 361 kts | 263° |
| 2026-05-04 22:20 | 51.68677 | 0.70259 | 12504 ft | 357 kts | 263° |
| 2026-05-04 22:20 | 51.68394 | 0.66299 | 11994 ft | 353 kts | 263° |
| 2026-05-04 22:21 | 51.68115 | 0.62394 | 11394 ft | 347 kts | 263° |
| 2026-05-04 22:21 | 51.67849 | 0.58679 | 11110 ft | 325 kts | 263° |
| 2026-05-04 22:21 | 51.67599 | 0.55193 | 10970 ft | 303 kts | 263° |
| 2026-05-04 22:21 | 51.67358 | 0.51879 | 10735 ft | 295 kts | 263° |
| 2026-05-04 22:22 | 51.67120 | 0.48626 | 10488 ft | 290 kts | 263° |
| 2026-05-04 22:22 | 51.66884 | 0.45412 | 10245 ft | 288 kts | 263° |
| 2026-05-04 22:22 | 51.66653 | 0.42256 | 9907 ft | 288 kts | 263° |
| 2026-05-04 22:22 | 51.66417 | 0.39039 | 9460 ft | 290 kts | 263° |
| 2026-05-04 22:23 | 51.66181 | 0.35837 | 9116 ft | 288 kts | 263° |
| 2026-05-04 22:23 | 51.65944 | 0.32637 | 8798 ft | 285 kts | 263° |
| 2026-05-04 22:23 | 51.65709 | 0.29488 | 8484 ft | 282 kts | 263° |
| 2026-05-04 22:23 | 51.65475 | 0.26371 | 8239 ft | 277 kts | 263° |
| 2026-05-04 22:24 | 51.65244 | 0.23325 | 8069 ft | 271 kts | 264° |
| 2026-05-04 22:24 | 51.65021 | 0.20381 | 8047 ft | 258 kts | 264° |
| 2026-05-04 22:24 | 51.64807 | 0.17585 | 8050 ft | 246 kts | 263° |
| 2026-05-04 22:24 | 51.64601 | 0.14886 | 8057 ft | 241 kts | 264° |
| 2026-05-04 22:25 | 51.64444 | 0.12198 | 8053 ft | 241 kts | 266° |
| 2026-05-04 22:25 | 51.64319 | 0.09497 | 8054 ft | 243 kts | 266° |
| 2026-05-04 22:25 | 51.64198 | 0.06786 | 8054 ft | 242 kts | 266° |
| 2026-05-04 22:25 | 51.64074 | 0.04098 | 8054 ft | 241 kts | 266° |
| 2026-05-04 22:26 | 51.63950 | 0.01421 | 8055 ft | 241 kts | 266° |
| 2026-05-04 22:26 | 51.63827 | -0.01270 | 7964 ft | 240 kts | 266° |
| 2026-05-04 22:26 | 51.63712 | -0.03924 | 7716 ft | 237 kts | 266° |
| 2026-05-04 22:26 | 51.63602 | -0.06572 | 7434 ft | 236 kts | 266° |
| 2026-05-04 22:27 | 51.63491 | -0.09204 | 7157 ft | 236 kts | 266° |
| 2026-05-04 22:27 | 51.63379 | -0.11817 | 7048 ft | 234 kts | 266° |
| 2026-05-04 22:27 | 51.63263 | -0.14444 | 7053 ft | 236 kts | 266° |
| 2026-05-04 22:27 | 51.63149 | -0.17085 | 7053 ft | 237 kts | 266° |
| 2026-05-04 22:28 | 51.63035 | -0.19732 | 7053 ft | 238 kts | 266° |
| 2026-05-04 22:28 | 51.62920 | -0.22388 | 7053 ft | 236 kts | 266° |
| 2026-05-04 22:28 | 51.62802 | -0.25019 | 7053 ft | 236 kts | 266° |
| 2026-05-04 22:28 | 51.62685 | -0.27665 | 7053 ft | 237 kts | 266° |
| 2026-05-04 22:29 | 51.62567 | -0.30302 | 7054 ft | 236 kts | 266° |
| 2026-05-04 22:29 | 51.62449 | -0.32919 | 7054 ft | 234 kts | 266° |
| 2026-05-04 22:29 | 51.62330 | -0.35529 | 7059 ft | 235 kts | 266° |
| 2026-05-04 22:29 | 51.62212 | -0.38156 | 7053 ft | 237 kts | 266° |
| 2026-05-04 22:30 | 51.62094 | -0.40788 | 7038 ft | 235 kts | 266° |
| 2026-05-04 22:30 | 51.61976 | -0.43411 | 6761 ft | 235 kts | 266° |
| 2026-05-04 22:30 | 51.61859 | -0.46031 | 6469 ft | 234 kts | 266° |
| 2026-05-04 22:30 | 51.61739 | -0.48634 | 6187 ft | 233 kts | 266° |
| 2026-05-04 22:31 | 51.61617 | -0.51229 | 5901 ft | 232 kts | 266° |
| 2026-05-04 22:31 | 51.61488 | -0.53805 | 5599 ft | 231 kts | 266° |
| 2026-05-04 22:31 | 51.61356 | -0.56386 | 5299 ft | 231 kts | 266° |
| 2026-05-04 22:31 | 51.61215 | -0.58946 | 5015 ft | 230 kts | 266° |
| 2026-05-04 22:32 | 51.61067 | -0.61501 | 4728 ft | 229 kts | 266° |
| 2026-05-04 22:32 | 51.60914 | -0.64052 | 4395 ft | 230 kts | 266° |
| 2026-05-04 22:32 | 51.60769 | -0.66619 | 4063 ft | 230 kts | 266° |
| 2026-05-04 22:32 | 51.60620 | -0.69179 | 4007 ft | 232 kts | 266° |
| 2026-05-04 22:33 | 51.60468 | -0.71775 | 4007 ft | 233 kts | 266° |
| 2026-05-04 22:33 | 51.60234 | -0.74354 | 4003 ft | 234 kts | 250° |
| 2026-05-04 22:33 | 51.59340 | -0.76407 | 4001 ft | 220 kts | 217° |
| 2026-05-04 22:33 | 51.57980 | -0.77264 | 4000 ft | 205 kts | 187° |
| 2026-05-04 22:34 | 51.56608 | -0.77433 | 4031 ft | 197 kts | 181° |
| 2026-05-04 22:34 | 51.55249 | -0.77527 | 3824 ft | 194 kts | 181° |
| 2026-05-04 22:34 | 51.53896 | -0.77631 | 3484 ft | 194 kts | 181° |
| 2026-05-04 22:34 | 51.52554 | -0.77740 | 3151 ft | 193 kts | 180° |
| 2026-05-04 22:35 | 51.51225 | -0.77805 | 3010 ft | 190 kts | 169° |
| 2026-05-04 22:35 | 51.50084 | -0.76902 | 3011 ft | 184 kts | 131° |
| 2026-05-04 22:35 | 51.49284 | -0.75305 | 3008 ft | 184 kts | 123° |
| 2026-05-04 22:35 | 51.48565 | -0.73611 | 3007 ft | 183 kts | 121° |
| 2026-05-04 22:36 | 51.47879 | -0.71882 | 2949 ft | 184 kts | 112° |
| 2026-05-04 22:36 | 51.47637 | -0.69944 | 2743 ft | 174 kts | 88° |
| 2026-05-04 22:36 | 51.47649 | -0.68040 | 2526 ft | 168 kts | 88° |
| 2026-05-04 22:36 | 51.47661 | -0.66187 | 2305 ft | 164 kts | 87° |
| 2026-05-04 22:37 | 51.47672 | -0.64386 | 2089 ft | 159 kts | 87° |
| 2026-05-04 22:37 | 51.47682 | -0.62635 | 1879 ft | 156 kts | 87° |
| 2026-05-04 22:37 | 51.47691 | -0.60925 | 1670 ft | 154 kts | 87° |
| 2026-05-04 22:37 | 51.47699 | -0.59220 | 1464 ft | 152 kts | 86° |
| 2026-05-04 22:38 | 51.47707 | -0.57541 | 1249 ft | 147 kts | 87° |
| 2026-05-04 22:38 | 51.47714 | -0.55951 | 1075 ft | 137 kts | 86° |
| 2026-05-04 22:38 | 51.47722 | -0.54475 | 858 ft | 132 kts | 86° |
| 2026-05-04 22:38 | 51.47736 | -0.52993 | 662 ft | 133 kts | 85° |
| 2026-05-04 22:39 | 51.47751 | -0.51487 | 475 ft | 136 kts | 88° |
| 2026-05-04 22:39 | 51.47739 | -0.49992 | 311 ft | 136 kts | 86° |
| 2026-05-04 22:39 | 51.47750 | -0.48466 | 133 ft | 135 kts | 87° |
| 2026-05-04 22:39 | 51.47756 | -0.47080 | 91 ft | 106 kts | 91° |
| 2026-05-04 22:40 | 51.47757 | -0.46361 | 91 ft | 27 kts | 90° |
| 2026-05-04 22:40 | 51.47731 | -0.46177 | 88 ft | 17 kts | 135° |
| 2026-05-04 22:40 | 51.47623 | -0.46072 | 89 ft | 15 kts | 176° |
| 2026-05-04 22:40 | 51.47594 | -0.46171 | 88 ft | 11 kts | 269° |
| 2026-05-04 22:41 | 51.47594 | -0.46316 | 86 ft | 15 kts | 270° |
| 2026-05-04 22:41 | 51.47593 | -0.46498 | 86 ft | 18 kts | 269° |
| 2026-05-04 22:41 | 51.47592 | -0.46710 | 86 ft | 20 kts | 270° |
| 2026-05-04 22:41 | 51.47583 | -0.46948 | 89 ft | 22 kts | 268° |
| 2026-05-04 22:42 | 51.47582 | -0.47211 | 90 ft | 25 kts | 270° |
| 2026-05-04 22:42 | 51.47581 | -0.47498 | 90 ft | 27 kts | 269° |
| 2026-05-04 22:42 | 51.47580 | -0.47801 | 90 ft | 27 kts | 269° |
| 2026-05-04 22:42 | 51.47580 | -0.48081 | 89 ft | 23 kts | 269° |
| 2026-05-04 22:43 | 51.47578 | -0.48322 | 88 ft | 22 kts | 269° |
| 2026-05-04 22:43 | 51.47516 | -0.48474 | 86 ft | 19 kts | 180° |
| 2026-05-04 22:43 | 51.47375 | -0.48475 | 86 ft | 22 kts | 179° |
| 2026-05-04 22:43 | 51.47216 | -0.48472 | 86 ft | 21 kts | 181° |
| 2026-05-04 22:44 | 51.47070 | -0.48472 | 86 ft | 22 kts | 180° |
| 2026-05-04 22:44 | 51.46929 | -0.48471 | 86 ft | 17 kts | 179° |
| 2026-05-04 22:44 | 51.46878 | -0.48572 | 86 ft | 8 kts | 269° |
| 2026-05-04 22:44 | 51.46903 | -0.48644 | 88 ft | 5 kts | 342° |
| 2026-05-04 22:45 | 51.46922 | -0.48646 | 87 ft | 2 kts | 357° |
| 2026-05-04 22:45 | 51.46931 | -0.48647 | 88 ft | 0 kts | 358° |